sensor_id;sensor_type;location;lat;lon;timestamp;P1;durP1;ratioP1;P2;durP2;ratioP2
51612;SDS011;37694;51.748;14.326;2023-02-11T00:01:49;14.27;;;8.57;;
51612;SDS011;37694;51.748;14.326;2023-02-11T00:04:15;10.77;;;7.65;;
51612;SDS011;37694;51.748;14.326;2023-02-11T00:06:41;13.48;;;7.38;;
51612;SDS011;37694;51.748;14.326;2023-02-11T00:09:07;14.40;;;8.13;;
51612;SDS011;37694;51.748;14.326;2023-02-11T00:11:33;9.95;;;7.85;;
51612;SDS011;37694;51.748;14.326;2023-02-11T00:14:00;14.57;;;8.95;;
51612;SDS011;37694;51.748;14.326;2023-02-11T00:16:28;14.20;;;8.77;;
51612;SDS011;37694;51.748;14.326;2023-02-11T00:18:57;11.77;;;8.07;;
51612;SDS011;37694;51.748;14.326;2023-02-11T00:21:24;13.18;;;8.40;;
51612;SDS011;37694;51.748;14.326;2023-02-11T00:23:51;12.02;;;9.02;;
51612;SDS011;37694;51.748;14.326;2023-02-11T00:26:18;12.77;;;7.95;;
51612;SDS011;37694;51.748;14.326;2023-02-11T00:28:49;11.25;;;8.95;;
51612;SDS011;37694;51.748;14.326;2023-02-11T00:31:16;13.10;;;8.63;;
51612;SDS011;37694;51.748;14.326;2023-02-11T00:33:43;11.23;;;7.97;;
51612;SDS011;37694;51.748;14.326;2023-02-11T00:36:19;12.40;;;8.20;;
51612;SDS011;37694;51.748;14.326;2023-02-11T00:38:50;13.50;;;8.63;;
51612;SDS011;37694;51.748;14.326;2023-02-11T00:41:17;13.35;;;7.70;;
51612;SDS011;37694;51.748;14.326;2023-02-11T00:43:43;12.55;;;8.23;;
51612;SDS011;37694;51.748;14.326;2023-02-11T00:46:09;11.63;;;8.32;;
51612;SDS011;37694;51.748;14.326;2023-02-11T00:48:36;13.82;;;8.30;;
51612;SDS011;37694;51.748;14.326;2023-02-11T00:51:02;12.65;;;8.35;;
51612;SDS011;37694;51.748;14.326;2023-02-11T00:53:28;10.02;;;8.02;;
51612;SDS011;37694;51.748;14.326;2023-02-11T00:55:54;10.65;;;8.05;;
51612;SDS011;37694;51.748;14.326;2023-02-11T00:58:20;10.00;;;7.97;;
51612;SDS011;37694;51.748;14.326;2023-02-11T01:00:46;12.75;;;8.32;;
51612;SDS011;37694;51.748;14.326;2023-02-11T01:03:12;14.88;;;8.30;;
51612;SDS011;37694;51.748;14.326;2023-02-11T01:05:38;13.77;;;7.90;;
51612;SDS011;37694;51.748;14.326;2023-02-11T01:08:04;9.50;;;8.15;;
51612;SDS011;37694;51.748;14.326;2023-02-11T01:10:29;14.13;;;8.65;;
51612;SDS011;37694;51.748;14.326;2023-02-11T01:12:56;12.90;;;8.60;;
51612;SDS011;37694;51.748;14.326;2023-02-11T01:15:21;10.48;;;7.57;;
51612;SDS011;37694;51.748;14.326;2023-02-11T01:17:47;11.40;;;8.82;;
51612;SDS011;37694;51.748;14.326;2023-02-11T01:20:18;10.57;;;8.40;;
51612;SDS011;37694;51.748;14.326;2023-02-11T01:22:46;10.85;;;8.15;;
51612;SDS011;37694;51.748;14.326;2023-02-11T01:25:12;13.75;;;8.07;;
51612;SDS011;37694;51.748;14.326;2023-02-11T01:27:37;10.10;;;8.38;;
51612;SDS011;37694;51.748;14.326;2023-02-11T01:30:04;10.82;;;7.65;;
51612;SDS011;37694;51.748;14.326;2023-02-11T01:32:31;11.73;;;8.48;;
51612;SDS011;37694;51.748;14.326;2023-02-11T01:34:57;9.40;;;8.02;;
51612;SDS011;37694;51.748;14.326;2023-02-11T01:37:23;9.77;;;7.85;;
51612;SDS011;37694;51.748;14.326;2023-02-11T01:39:48;11.75;;;8.55;;
51612;SDS011;37694;51.748;14.326;2023-02-11T01:42:15;10.98;;;8.57;;
51612;SDS011;37694;51.748;14.326;2023-02-11T01:44:42;11.48;;;7.88;;
51612;SDS011;37694;51.748;14.326;2023-02-11T01:47:08;13.05;;;8.40;;
51612;SDS011;37694;51.748;14.326;2023-02-11T01:49:41;9.82;;;8.65;;
51612;SDS011;37694;51.748;14.326;2023-02-11T01:52:28;10.55;;;8.32;;
51612;SDS011;37694;51.748;14.326;2023-02-11T01:54:59;10.25;;;7.85;;
51612;SDS011;37694;51.748;14.326;2023-02-11T01:57:48;9.80;;;7.82;;
51612;SDS011;37694;51.748;14.326;2023-02-11T02:00:23;8.52;;;7.60;;
51612;SDS011;37694;51.748;14.326;2023-02-11T02:05:31;10.82;;;9.05;;
51612;SDS011;37694;51.748;14.326;2023-02-11T02:10:53;10.57;;;7.60;;
51612;SDS011;37694;51.748;14.326;2023-02-11T02:13:21;10.73;;;8.07;;
51612;SDS011;37694;51.748;14.326;2023-02-11T02:15:49;9.30;;;7.63;;
51612;SDS011;37694;51.748;14.326;2023-02-11T02:38:11;9.88;;;7.43;;
51612;SDS011;37694;51.748;14.326;2023-02-11T02:40:58;10.55;;;7.35;;
51612;SDS011;37694;51.748;14.326;2023-02-11T02:43:30;10.98;;;7.88;;
51612;SDS011;37694;51.748;14.326;2023-02-11T02:46:11;11.73;;;7.72;;
51612;SDS011;37694;51.748;14.326;2023-02-11T02:48:45;10.73;;;7.80;;
51612;SDS011;37694;51.748;14.326;2023-02-11T02:56:42;8.80;;;7.38;;
51612;SDS011;37694;51.748;14.326;2023-02-11T03:09:45;11.52;;;7.68;;
51612;SDS011;37694;51.748;14.326;2023-02-11T03:12:30;10.30;;;8.40;;
51612;SDS011;37694;51.748;14.326;2023-02-11T03:14:58;10.13;;;7.90;;
51612;SDS011;37694;51.748;14.326;2023-02-11T03:17:26;8.52;;;7.30;;
51612;SDS011;37694;51.748;14.326;2023-02-11T03:19:54;9.15;;;7.22;;
51612;SDS011;37694;51.748;14.326;2023-02-11T03:22:23;9.88;;;7.47;;
51612;SDS011;37694;51.748;14.326;2023-02-11T03:24:53;11.02;;;7.72;;
51612;SDS011;37694;51.748;14.326;2023-02-11T03:27:24;11.32;;;7.55;;
51612;SDS011;37694;51.748;14.326;2023-02-11T03:30:00;9.38;;;7.75;;
51612;SDS011;37694;51.748;14.326;2023-02-11T03:32:39;9.43;;;7.45;;
51612;SDS011;37694;51.748;14.326;2023-02-11T03:35:26;8.73;;;7.25;;
51612;SDS011;37694;51.748;14.326;2023-02-11T03:38:29;9.13;;;6.57;;
51612;SDS011;37694;51.748;14.326;2023-02-11T03:41:00;7.40;;;6.38;;
51612;SDS011;37694;51.748;14.326;2023-02-11T03:43:32;11.23;;;7.22;;
51612;SDS011;37694;51.748;14.326;2023-02-11T03:46:04;8.90;;;7.45;;
51612;SDS011;37694;51.748;14.326;2023-02-11T03:48:38;9.10;;;7.03;;
51612;SDS011;37694;51.748;14.326;2023-02-11T03:51:08;8.27;;;7.00;;
51612;SDS011;37694;51.748;14.326;2023-02-11T03:53:36;8.18;;;7.18;;
51612;SDS011;37694;51.748;14.326;2023-02-11T03:56:05;9.93;;;7.70;;
51612;SDS011;37694;51.748;14.326;2023-02-11T03:58:33;8.25;;;6.60;;
51612;SDS011;37694;51.748;14.326;2023-02-11T04:01:00;9.45;;;7.38;;
51612;SDS011;37694;51.748;14.326;2023-02-11T04:03:26;7.65;;;6.85;;
51612;SDS011;37694;51.748;14.326;2023-02-11T04:05:52;9.13;;;6.57;;
51612;SDS011;37694;51.748;14.326;2023-02-11T04:08:18;10.40;;;7.03;;
51612;SDS011;37694;51.748;14.326;2023-02-11T04:10:44;14.75;;;7.45;;
51612;SDS011;37694;51.748;14.326;2023-02-11T04:13:10;8.43;;;6.50;;
51612;SDS011;37694;51.748;14.326;2023-02-11T04:15:35;8.50;;;6.88;;
51612;SDS011;37694;51.748;14.326;2023-02-11T04:18:01;9.60;;;7.22;;
51612;SDS011;37694;51.748;14.326;2023-02-11T04:20:27;9.93;;;6.97;;
51612;SDS011;37694;51.748;14.326;2023-02-11T04:22:53;7.85;;;7.05;;
51612;SDS011;37694;51.748;14.326;2023-02-11T04:25:19;7.30;;;6.45;;
51612;SDS011;37694;51.748;14.326;2023-02-11T04:27:45;10.52;;;6.82;;
51612;SDS011;37694;51.748;14.326;2023-02-11T04:30:11;8.15;;;5.97;;
51612;SDS011;37694;51.748;14.326;2023-02-11T04:32:37;8.05;;;6.63;;
51612;SDS011;37694;51.748;14.326;2023-02-11T04:35:03;7.90;;;6.20;;
51612;SDS011;37694;51.748;14.326;2023-02-11T04:37:29;7.80;;;6.35;;
51612;SDS011;37694;51.748;14.326;2023-02-11T04:39:54;8.02;;;6.78;;
51612;SDS011;37694;51.748;14.326;2023-02-11T04:42:20;7.68;;;6.18;;
51612;SDS011;37694;51.748;14.326;2023-02-11T04:44:45;7.13;;;5.85;;
51612;SDS011;37694;51.748;14.326;2023-02-11T04:47:11;9.48;;;6.85;;
51612;SDS011;37694;51.748;14.326;2023-02-11T04:49:39;7.00;;;5.35;;
51612;SDS011;37694;51.748;14.326;2023-02-11T04:52:05;6.95;;;5.80;;
51612;SDS011;37694;51.748;14.326;2023-02-11T04:54:31;7.68;;;6.43;;
51612;SDS011;37694;51.748;14.326;2023-02-11T04:56:56;7.57;;;6.10;;
51612;SDS011;37694;51.748;14.326;2023-02-11T04:59:22;6.72;;;6.03;;
51612;SDS011;37694;51.748;14.326;2023-02-11T05:01:48;6.88;;;6.15;;
51612;SDS011;37694;51.748;14.326;2023-02-11T05:04:14;6.97;;;6.15;;
51612;SDS011;37694;51.748;14.326;2023-02-11T05:06:40;7.72;;;6.18;;
51612;SDS011;37694;51.748;14.326;2023-02-11T05:09:06;7.57;;;6.68;;
51612;SDS011;37694;51.748;14.326;2023-02-11T05:11:32;6.38;;;5.78;;
51612;SDS011;37694;51.748;14.326;2023-02-11T05:13:58;9.32;;;6.43;;
51612;SDS011;37694;51.748;14.326;2023-02-11T05:16:23;7.82;;;6.20;;
51612;SDS011;37694;51.748;14.326;2023-02-11T05:18:49;7.68;;;6.70;;
51612;SDS011;37694;51.748;14.326;2023-02-11T05:21:16;7.32;;;5.93;;
51612;SDS011;37694;51.748;14.326;2023-02-11T05:23:42;6.68;;;5.60;;
51612;SDS011;37694;51.748;14.326;2023-02-11T05:26:09;6.90;;;6.00;;
51612;SDS011;37694;51.748;14.326;2023-02-11T05:28:35;8.05;;;6.18;;
51612;SDS011;37694;51.748;14.326;2023-02-11T05:31:01;8.52;;;5.50;;
51612;SDS011;37694;51.748;14.326;2023-02-11T05:33:28;7.63;;;5.55;;
51612;SDS011;37694;51.748;14.326;2023-02-11T05:36:07;15.38;;;5.43;;
51612;SDS011;37694;51.748;14.326;2023-02-11T05:38:34;8.48;;;5.43;;
51612;SDS011;37694;51.748;14.326;2023-02-11T05:41:00;6.63;;;5.05;;
51612;SDS011;37694;51.748;14.326;2023-02-11T05:43:26;11.30;;;5.88;;
51612;SDS011;37694;51.748;14.326;2023-02-11T05:45:52;9.80;;;5.88;;
51612;SDS011;37694;51.748;14.326;2023-02-11T05:48:18;8.27;;;5.75;;
51612;SDS011;37694;51.748;14.326;2023-02-11T05:50:44;16.42;;;5.60;;
51612;SDS011;37694;51.748;14.326;2023-02-11T05:53:10;9.10;;;5.93;;
51612;SDS011;37694;51.748;14.326;2023-02-11T05:55:36;7.63;;;5.93;;
51612;SDS011;37694;51.748;14.326;2023-02-11T05:58:02;9.18;;;5.97;;
51612;SDS011;37694;51.748;14.326;2023-02-11T06:00:28;9.40;;;6.20;;
51612;SDS011;37694;51.748;14.326;2023-02-11T06:02:53;8.32;;;5.47;;
51612;SDS011;37694;51.748;14.326;2023-02-11T06:05:19;9.57;;;5.43;;
51612;SDS011;37694;51.748;14.326;2023-02-11T06:07:45;10.70;;;4.88;;
51612;SDS011;37694;51.748;14.326;2023-02-11T06:10:11;10.77;;;5.50;;
51612;SDS011;37694;51.748;14.326;2023-02-11T06:12:37;9.63;;;5.03;;
51612;SDS011;37694;51.748;14.326;2023-02-11T06:15:03;13.52;;;5.43;;
51612;SDS011;37694;51.748;14.326;2023-02-11T06:17:29;13.18;;;5.55;;
51612;SDS011;37694;51.748;14.326;2023-02-11T06:19:57;11.00;;;6.03;;
51612;SDS011;37694;51.748;14.326;2023-02-11T06:22:24;14.15;;;6.05;;
51612;SDS011;37694;51.748;14.326;2023-02-11T06:24:50;5.65;;;4.95;;
51612;SDS011;37694;51.748;14.326;2023-02-11T06:27:16;11.50;;;5.43;;
51612;SDS011;37694;51.748;14.326;2023-02-11T06:29:43;6.43;;;5.22;;
51612;SDS011;37694;51.748;14.326;2023-02-11T06:32:09;7.15;;;5.28;;
51612;SDS011;37694;51.748;14.326;2023-02-11T06:34:34;5.82;;;4.78;;
51612;SDS011;37694;51.748;14.326;2023-02-11T06:37:00;7.28;;;5.07;;
51612;SDS011;37694;51.748;14.326;2023-02-11T06:39:26;10.15;;;4.63;;
51612;SDS011;37694;51.748;14.326;2023-02-11T06:41:52;7.75;;;5.13;;
51612;SDS011;37694;51.748;14.326;2023-02-11T06:44:18;7.18;;;4.85;;
51612;SDS011;37694;51.748;14.326;2023-02-11T06:46:43;6.38;;;4.53;;
51612;SDS011;37694;51.748;14.326;2023-02-11T06:49:09;10.80;;;4.72;;
51612;SDS011;37694;51.748;14.326;2023-02-11T06:51:35;11.25;;;5.47;;
51612;SDS011;37694;51.748;14.326;2023-02-11T06:54:01;7.40;;;4.70;;
51612;SDS011;37694;51.748;14.326;2023-02-11T06:56:28;7.35;;;5.03;;
51612;SDS011;37694;51.748;14.326;2023-02-11T06:58:54;7.13;;;4.45;;
51612;SDS011;37694;51.748;14.326;2023-02-11T07:01:21;11.75;;;4.47;;
51612;SDS011;37694;51.748;14.326;2023-02-11T07:03:48;10.32;;;4.82;;
51612;SDS011;37694;51.748;14.326;2023-02-11T07:06:16;6.22;;;4.28;;
51612;SDS011;37694;51.748;14.326;2023-02-11T07:08:44;6.10;;;4.68;;
51612;SDS011;37694;51.748;14.326;2023-02-11T07:11:12;5.22;;;4.68;;
51612;SDS011;37694;51.748;14.326;2023-02-11T07:13:43;6.00;;;4.22;;
51612;SDS011;37694;51.748;14.326;2023-02-11T07:16:11;6.47;;;4.80;;
51612;SDS011;37694;51.748;14.326;2023-02-11T07:18:39;9.95;;;4.50;;
51612;SDS011;37694;51.748;14.326;2023-02-11T07:21:05;7.47;;;4.07;;
51612;SDS011;37694;51.748;14.326;2023-02-11T07:23:33;9.60;;;4.55;;
51612;SDS011;37694;51.748;14.326;2023-02-11T07:26:03;6.40;;;4.70;;
51612;SDS011;37694;51.748;14.326;2023-02-11T07:28:31;5.03;;;4.43;;
51612;SDS011;37694;51.748;14.326;2023-02-11T07:31:04;8.32;;;4.10;;
51612;SDS011;37694;51.748;14.326;2023-02-11T07:33:33;5.35;;;4.53;;
51612;SDS011;37694;51.748;14.326;2023-02-11T07:36:00;8.25;;;4.47;;
51612;SDS011;37694;51.748;14.326;2023-02-11T07:38:26;9.45;;;4.10;;
51612;SDS011;37694;51.748;14.326;2023-02-11T07:40:52;4.55;;;4.15;;
51612;SDS011;37694;51.748;14.326;2023-02-11T07:43:17;6.60;;;4.25;;
51612;SDS011;37694;51.748;14.326;2023-02-11T07:45:43;6.63;;;3.95;;
51612;SDS011;37694;51.748;14.326;2023-02-11T07:48:09;5.00;;;4.00;;
51612;SDS011;37694;51.748;14.326;2023-02-11T07:50:35;5.05;;;4.13;;
51612;SDS011;37694;51.748;14.326;2023-02-11T07:53:01;9.32;;;4.40;;
51612;SDS011;37694;51.748;14.326;2023-02-11T07:55:27;6.38;;;4.07;;
51612;SDS011;37694;51.748;14.326;2023-02-11T07:57:53;6.65;;;3.67;;
51612;SDS011;37694;51.748;14.326;2023-02-11T08:00:18;4.55;;;3.80;;
51612;SDS011;37694;51.748;14.326;2023-02-11T08:02:44;5.65;;;3.42;;
51612;SDS011;37694;51.748;14.326;2023-02-11T08:05:10;4.63;;;4.05;;
51612;SDS011;37694;51.748;14.326;2023-02-11T08:07:35;4.78;;;3.90;;
51612;SDS011;37694;51.748;14.326;2023-02-11T08:10:01;14.90;;;4.07;;
51612;SDS011;37694;51.748;14.326;2023-02-11T08:12:27;5.25;;;3.72;;
51612;SDS011;37694;51.748;14.326;2023-02-11T08:14:52;4.18;;;3.78;;
51612;SDS011;37694;51.748;14.326;2023-02-11T08:17:18;6.00;;;4.07;;
51612;SDS011;37694;51.748;14.326;2023-02-11T08:19:44;6.60;;;3.65;;
51612;SDS011;37694;51.748;14.326;2023-02-11T08:22:09;3.78;;;3.47;;
51612;SDS011;37694;51.748;14.326;2023-02-11T08:24:35;7.78;;;4.20;;
51612;SDS011;37694;51.748;14.326;2023-02-11T08:27:01;8.30;;;4.40;;
51612;SDS011;37694;51.748;14.326;2023-02-11T08:29:26;4.30;;;3.90;;
51612;SDS011;37694;51.748;14.326;2023-02-11T08:31:52;9.35;;;3.88;;
51612;SDS011;37694;51.748;14.326;2023-02-11T08:34:18;10.77;;;4.22;;
51612;SDS011;37694;51.748;14.326;2023-02-11T08:36:44;5.53;;;4.07;;
51612;SDS011;37694;51.748;14.326;2023-02-11T08:39:15;7.03;;;4.40;;
51612;SDS011;37694;51.748;14.326;2023-02-11T08:41:43;5.30;;;3.95;;
51612;SDS011;37694;51.748;14.326;2023-02-11T08:44:09;17.15;;;5.03;;
51612;SDS011;37694;51.748;14.326;2023-02-11T08:46:35;17.98;;;4.53;;
51612;SDS011;37694;51.748;14.326;2023-02-11T08:49:01;7.10;;;4.35;;
51612;SDS011;37694;51.748;14.326;2023-02-11T08:51:28;11.02;;;4.63;;
51612;SDS011;37694;51.748;14.326;2023-02-11T08:53:57;17.33;;;4.47;;
51612;SDS011;37694;51.748;14.326;2023-02-11T08:56:24;15.80;;;3.88;;
51612;SDS011;37694;51.748;14.326;2023-02-11T08:58:50;13.35;;;4.53;;
51612;SDS011;37694;51.748;14.326;2023-02-11T09:01:24;11.55;;;4.60;;
51612;SDS011;37694;51.748;14.326;2023-02-11T09:03:51;15.93;;;5.60;;
51612;SDS011;37694;51.748;14.326;2023-02-11T09:06:17;16.00;;;4.53;;
51612;SDS011;37694;51.748;14.326;2023-02-11T09:08:45;11.30;;;4.30;;
51612;SDS011;37694;51.748;14.326;2023-02-11T09:11:16;10.98;;;4.38;;
51612;SDS011;37694;51.748;14.326;2023-02-11T09:13:43;11.95;;;4.10;;
51612;SDS011;37694;51.748;14.326;2023-02-11T09:16:14;21.63;;;5.60;;
51612;SDS011;37694;51.748;14.326;2023-02-11T09:21:10;11.05;;;4.28;;
51612;SDS011;37694;51.748;14.326;2023-02-11T09:23:36;14.13;;;4.43;;
51612;SDS011;37694;51.748;14.326;2023-02-11T09:26:06;12.40;;;4.30;;
51612;SDS011;37694;51.748;14.326;2023-02-11T09:28:33;15.10;;;4.97;;
51612;SDS011;37694;51.748;14.326;2023-02-11T09:31:03;10.70;;;4.53;;
51612;SDS011;37694;51.748;14.326;2023-02-11T09:33:32;7.97;;;3.90;;
51612;SDS011;37694;51.748;14.326;2023-02-11T09:35:59;13.98;;;4.18;;
51612;SDS011;37694;51.748;14.326;2023-02-11T09:38:26;9.32;;;4.22;;
51612;SDS011;37694;51.748;14.326;2023-02-11T09:40:52;33.47;;;4.57;;
51612;SDS011;37694;51.748;14.326;2023-02-11T09:43:19;17.42;;;4.43;;
51612;SDS011;37694;51.748;14.326;2023-02-11T09:45:47;16.25;;;4.20;;
51612;SDS011;37694;51.748;14.326;2023-02-11T09:48:15;10.77;;;3.75;;
51612;SDS011;37694;51.748;14.326;2023-02-11T09:50:53;20.48;;;4.20;;
51612;SDS011;37694;51.748;14.326;2023-02-11T09:53:28;14.68;;;5.05;;
51612;SDS011;37694;51.748;14.326;2023-02-11T09:56:08;19.75;;;4.85;;
51612;SDS011;37694;51.748;14.326;2023-02-11T09:58:37;21.50;;;5.05;;
51612;SDS011;37694;51.748;14.326;2023-02-11T10:14:39;9.23;;;3.55;;
51612;SDS011;37694;51.748;14.326;2023-02-11T10:24:51;4.75;;;2.15;;
51612;SDS011;37694;51.748;14.326;2023-02-11T10:27:23;6.50;;;1.90;;
51612;SDS011;37694;51.748;14.326;2023-02-11T10:30:37;6.50;;;2.35;;
51612;SDS011;37694;51.748;14.326;2023-02-11T10:33:14;4.63;;;1.50;;
51612;SDS011;37694;51.748;14.326;2023-02-11T10:36:03;4.50;;;1.58;;
51612;SDS011;37694;51.748;14.326;2023-02-11T10:38:29;3.95;;;1.17;;
51612;SDS011;37694;51.748;14.326;2023-02-11T10:40:55;2.25;;;1.20;;
51612;SDS011;37694;51.748;14.326;2023-02-11T10:43:22;2.63;;;1.20;;
51612;SDS011;37694;51.748;14.326;2023-02-11T10:45:51;2.03;;;1.40;;
51612;SDS011;37694;51.748;14.326;2023-02-11T10:51:20;4.85;;;1.48;;
51612;SDS011;37694;51.748;14.326;2023-02-11T10:56:35;2.92;;;1.58;;
51612;SDS011;37694;51.748;14.326;2023-02-11T10:59:04;1.13;;;1.00;;
51612;SDS011;37694;51.748;14.326;2023-02-11T11:04:25;1.35;;;1.25;;
51612;SDS011;37694;51.748;14.326;2023-02-11T11:07:11;1.38;;;1.10;;
51612;SDS011;37694;51.748;14.326;2023-02-11T11:09:50;1.67;;;1.20;;
51612;SDS011;37694;51.748;14.326;2023-02-11T11:12:50;2.20;;;1.35;;
51612;SDS011;37694;51.748;14.326;2023-02-11T11:15:23;1.30;;;0.90;;
51612;SDS011;37694;51.748;14.326;2023-02-11T11:18:07;1.10;;;1.00;;
51612;SDS011;37694;51.748;14.326;2023-02-11T11:20:43;1.15;;;0.90;;
51612;SDS011;37694;51.748;14.326;2023-02-11T11:23:23;1.30;;;1.20;;
51612;SDS011;37694;51.748;14.326;2023-02-11T11:26:03;0.93;;;0.93;;
51612;SDS011;37694;51.748;14.326;2023-02-11T11:31:13;0.85;;;0.85;;
51612;SDS011;37694;51.748;14.326;2023-02-11T11:33:45;14.35;;;2.08;;
51612;SDS011;37694;51.748;14.326;2023-02-11T11:36:12;6.45;;;2.53;;
51612;SDS011;37694;51.748;14.326;2023-02-11T11:38:59;12.88;;;2.25;;
51612;SDS011;37694;51.748;14.326;2023-02-11T11:41:29;3.53;;;1.75;;
51612;SDS011;37694;51.748;14.326;2023-02-11T11:44:13;9.07;;;1.30;;
51612;SDS011;37694;51.748;14.326;2023-02-11T11:46:45;4.47;;;1.75;;
51612;SDS011;37694;51.748;14.326;2023-02-11T11:49:34;11.50;;;1.67;;
51612;SDS011;37694;51.748;14.326;2023-02-11T11:55:54;7.75;;;1.65;;
51612;SDS011;37694;51.748;14.326;2023-02-11T11:58:35;0.82;;;0.82;;
51612;SDS011;37694;51.748;14.326;2023-02-11T12:09:18;5.55;;;1.15;;
51612;SDS011;37694;51.748;14.326;2023-02-11T12:16:54;8.38;;;1.25;;
51612;SDS011;37694;51.748;14.326;2023-02-11T12:22:23;5.78;;;1.15;;
51612;SDS011;37694;51.748;14.326;2023-02-11T12:28:09;4.03;;;1.02;;
51612;SDS011;37694;51.748;14.326;2023-02-11T12:30:46;5.25;;;1.40;;
51612;SDS011;37694;51.748;14.326;2023-02-11T12:33:16;5.35;;;1.45;;
51612;SDS011;37694;51.748;14.326;2023-02-11T12:35:58;3.95;;;1.60;;
51612;SDS011;37694;51.748;14.326;2023-02-11T12:47:56;4.85;;;1.77;;
51612;SDS011;37694;51.748;14.326;2023-02-11T12:50:35;7.07;;;1.50;;
51612;SDS011;37694;51.748;14.326;2023-02-11T12:53:10;5.35;;;1.42;;
51612;SDS011;37694;51.748;14.326;2023-02-11T12:55:48;5.28;;;2.25;;
51612;SDS011;37694;51.748;14.326;2023-02-11T12:58:22;5.78;;;1.98;;
51612;SDS011;37694;51.748;14.326;2023-02-11T13:01:35;6.25;;;1.90;;
51612;SDS011;37694;51.748;14.326;2023-02-11T13:03:47;8.88;;;2.20;;
51612;SDS011;37694;51.748;14.326;2023-02-11T13:06:16;7.50;;;1.65;;
51612;SDS011;37694;51.748;14.326;2023-02-11T13:08:47;26.90;;;2.30;;
51612;SDS011;37694;51.748;14.326;2023-02-11T13:11:59;5.43;;;1.98;;
51612;SDS011;37694;51.748;14.326;2023-02-11T13:14:13;29.95;;;2.90;;
51612;SDS011;37694;51.748;14.326;2023-02-11T13:16:46;15.02;;;2.72;;
51612;SDS011;37694;51.748;14.326;2023-02-11T13:22:10;9.25;;;2.30;;
51612;SDS011;37694;51.748;14.326;2023-02-11T13:24:52;12.75;;;2.50;;
51612;SDS011;37694;51.748;14.326;2023-02-11T13:38:39;8.85;;;2.50;;
51612;SDS011;37694;51.748;14.326;2023-02-11T13:41:03;6.95;;;2.65;;
51612;SDS011;37694;51.748;14.326;2023-02-11T13:43:46;8.85;;;2.38;;
51612;SDS011;37694;51.748;14.326;2023-02-11T13:46:48;8.60;;;1.80;;
51612;SDS011;37694;51.748;14.326;2023-02-11T13:49:32;5.65;;;1.95;;
51612;SDS011;37694;51.748;14.326;2023-02-11T13:52:05;6.75;;;1.77;;
51612;SDS011;37694;51.748;14.326;2023-02-11T13:54:48;9.45;;;2.47;;
51612;SDS011;37694;51.748;14.326;2023-02-11T13:59:44;13.07;;;2.88;;
51612;SDS011;37694;51.748;14.326;2023-02-11T14:02:34;5.13;;;2.38;;
51612;SDS011;37694;51.748;14.326;2023-02-11T14:10:58;8.77;;;2.63;;
51612;SDS011;37694;51.748;14.326;2023-02-11T14:17:40;3.67;;;2.17;;
51612;SDS011;37694;51.748;14.326;2023-02-11T14:19:36;4.65;;;2.40;;
51612;SDS011;37694;51.748;14.326;2023-02-11T14:22:02;13.27;;;2.60;;
51612;SDS011;37694;51.748;14.326;2023-02-11T14:36:06;4.60;;;2.05;;
51612;SDS011;37694;51.748;14.326;2023-02-11T14:41:25;8.93;;;2.67;;
51612;SDS011;37694;51.748;14.326;2023-02-11T14:43:57;10.68;;;2.20;;
51612;SDS011;37694;51.748;14.326;2023-02-11T14:46:25;20.60;;;2.78;;
51612;SDS011;37694;51.748;14.326;2023-02-11T14:48:55;6.82;;;2.10;;
51612;SDS011;37694;51.748;14.326;2023-02-11T14:51:24;6.05;;;2.22;;
51612;SDS011;37694;51.748;14.326;2023-02-11T14:54:13;3.83;;;2.25;;
51612;SDS011;37694;51.748;14.326;2023-02-11T14:56:42;5.15;;;2.08;;
51612;SDS011;37694;51.748;14.326;2023-02-11T14:59:19;13.18;;;2.80;;
51612;SDS011;37694;51.748;14.326;2023-02-11T15:01:50;5.03;;;2.13;;
51612;SDS011;37694;51.748;14.326;2023-02-11T15:04:23;7.85;;;3.22;;
51612;SDS011;37694;51.748;14.326;2023-02-11T15:06:51;10.20;;;2.00;;
51612;SDS011;37694;51.748;14.326;2023-02-11T15:09:19;9.07;;;2.65;;
51612;SDS011;37694;51.748;14.326;2023-02-11T15:11:49;10.70;;;2.45;;
51612;SDS011;37694;51.748;14.326;2023-02-11T15:14:32;6.40;;;1.90;;
51612;SDS011;37694;51.748;14.326;2023-02-11T15:17:03;3.65;;;2.28;;
51612;SDS011;37694;51.748;14.326;2023-02-11T15:19:35;7.40;;;2.65;;
51612;SDS011;37694;51.748;14.326;2023-02-11T15:22:14;4.72;;;2.35;;
51612;SDS011;37694;51.748;14.326;2023-02-11T15:27:38;6.57;;;2.42;;
51612;SDS011;37694;51.748;14.326;2023-02-11T15:30:16;7.55;;;2.60;;
51612;SDS011;37694;51.748;14.326;2023-02-11T15:32:45;9.05;;;2.75;;
51612;SDS011;37694;51.748;14.326;2023-02-11T15:35:11;10.15;;;2.50;;
51612;SDS011;37694;51.748;14.326;2023-02-11T15:37:40;8.82;;;2.60;;
51612;SDS011;37694;51.748;14.326;2023-02-11T15:40:10;8.13;;;2.47;;
51612;SDS011;37694;51.748;14.326;2023-02-11T15:48:13;8.30;;;2.33;;
51612;SDS011;37694;51.748;14.326;2023-02-11T15:50:41;11.55;;;3.20;;
51612;SDS011;37694;51.748;14.326;2023-02-11T15:53:29;14.27;;;3.03;;
51612;SDS011;37694;51.748;14.326;2023-02-11T15:56:01;9.05;;;2.90;;
51612;SDS011;37694;51.748;14.326;2023-02-11T15:58:39;10.55;;;3.13;;
51612;SDS011;37694;51.748;14.326;2023-02-11T16:01:06;11.57;;;3.08;;
51612;SDS011;37694;51.748;14.326;2023-02-11T16:03:34;9.80;;;2.78;;
51612;SDS011;37694;51.748;14.326;2023-02-11T16:08:41;7.70;;;2.90;;
51612;SDS011;37694;51.748;14.326;2023-02-11T16:11:27;6.13;;;2.30;;
51612;SDS011;37694;51.748;14.326;2023-02-11T16:13:55;7.63;;;3.10;;
51612;SDS011;37694;51.748;14.326;2023-02-11T16:16:27;6.65;;;3.15;;
51612;SDS011;37694;51.748;14.326;2023-02-11T16:19:00;10.57;;;2.60;;
51612;SDS011;37694;51.748;14.326;2023-02-11T16:21:29;5.82;;;2.60;;
51612;SDS011;37694;51.748;14.326;2023-02-11T16:24:03;10.20;;;2.97;;
51612;SDS011;37694;51.748;14.326;2023-02-11T16:26:37;6.15;;;2.90;;
51612;SDS011;37694;51.748;14.326;2023-02-11T16:29:12;7.60;;;2.45;;
51612;SDS011;37694;51.748;14.326;2023-02-11T16:31:47;13.98;;;3.15;;
51612;SDS011;37694;51.748;14.326;2023-02-11T16:36:41;13.00;;;3.25;;
51612;SDS011;37694;51.748;14.326;2023-02-11T16:39:07;10.23;;;2.55;;
51612;SDS011;37694;51.748;14.326;2023-02-11T16:41:33;6.20;;;3.05;;
51612;SDS011;37694;51.748;14.326;2023-02-11T16:43:59;6.28;;;2.65;;
51612;SDS011;37694;51.748;14.326;2023-02-11T16:46:25;10.50;;;2.00;;
51612;SDS011;37694;51.748;14.326;2023-02-11T16:48:51;4.68;;;2.47;;
51612;SDS011;37694;51.748;14.326;2023-02-11T16:51:18;11.80;;;2.50;;
51612;SDS011;37694;51.748;14.326;2023-02-11T16:53:44;13.25;;;2.85;;
51612;SDS011;37694;51.748;14.326;2023-02-11T16:56:11;13.07;;;2.47;;
51612;SDS011;37694;51.748;14.326;2023-02-11T16:58:39;12.48;;;2.33;;
51612;SDS011;37694;51.748;14.326;2023-02-11T17:01:05;5.70;;;2.22;;
51612;SDS011;37694;51.748;14.326;2023-02-11T17:03:31;4.95;;;2.33;;
51612;SDS011;37694;51.748;14.326;2023-02-11T17:06:02;5.13;;;2.38;;
51612;SDS011;37694;51.748;14.326;2023-02-11T17:08:33;11.20;;;3.13;;
51612;SDS011;37694;51.748;14.326;2023-02-11T17:10:59;7.50;;;2.13;;
51612;SDS011;37694;51.748;14.326;2023-02-11T17:13:26;7.40;;;2.25;;
51612;SDS011;37694;51.748;14.326;2023-02-11T17:15:51;11.20;;;2.67;;
51612;SDS011;37694;51.748;14.326;2023-02-11T17:18:17;16.17;;;2.95;;
51612;SDS011;37694;51.748;14.326;2023-02-11T17:20:43;8.73;;;2.97;;
51612;SDS011;37694;51.748;14.326;2023-02-11T17:23:08;5.13;;;2.30;;
51612;SDS011;37694;51.748;14.326;2023-02-11T17:25:34;9.98;;;2.78;;
51612;SDS011;37694;51.748;14.326;2023-02-11T17:28:04;7.78;;;2.40;;